Bourbonnais, IL (60914)

01:32 PM CDT am 01. September 2014 (GMT -0500)
Cap Estates | Change Station
CLOSE
Current Station
Persönliche Wetterstationen
Location: Bourbonnais, IL
Höhe: 620 ft
Wetterstationen in der Umgebung

Höhe 620 ft 41.17 °N, 87.83 °W | Updated 5 seconds ago

Wolkig
Wolkig
85.3 °F
gefühlte 92 °F
N
0.0
Wind Wechselnd Wind aus Südwest
Gusts 8.9 mph

Heute
Max. -- | schwach -- °F
--% Regenrisiko
Gestern
Max. -- | schwach -- °F
Precip. -- inch
6:18 AM 7:24 PM
Erstes Viertel, 43% visible
Druck 29.82 inch
Sichtweite 10.0 Meilen
Wolken Teils Wolkig 3300 ft
Wolkig 4100 ft
Bedeckt 7500 ft
Hitzeindex 92 °F
Taupunkt 73 °F
Feuchtigkeit 66%
Regen 0.00 inch
Schneehöhe Nicht verfügbar..
UV 3 von 12
Pollen 8.80 von 12
Ozon Gut
PM2.5 Mäßig
Flu Activity Nicht verfügbar..
METAR KIKK 011815Z AUTO 22015G18KT 10SM SCT033 BKN041 OVC075 28/21 A2982 RMK AO2 T02770214

More Conditions Fewer Conditions

Druck 29.82 inch
Sichtweite 10.0 Meilen
Wolken Teils Wolkig 3300 ft
Wolkig 4100 ft
Bedeckt 7500 ft
Hitzeindex 92 °F
Taupunkt 73 °F
Feuchtigkeit 66%
Regen 0.00 inch
Schneehöhe Nicht verfügbar..
UV 3 von 12
Pollen 8.80 von 12
Ozon Gut
PM2.5 Mäßig
Flu Activity Nicht verfügbar..
METAR KIKK 011815Z AUTO 22015G18KT 10SM SCT033 BKN041 OVC075 28/21 A2982 RMK AO2 T02770214

More Conditions Fewer Conditions

10-Day Weather Forecast

Almanac

Astronomie

Sep. 01, 2014 Aufgang Untergang
Genaue Zeit 06:18 CDT 19:24 CDT
Bürgerliche Dämmerung 05:49 CDT 19:52 CDT
Nautische Dämmerung 05:15 CDT 20:26 CDT
Astronomische Dämmerung 04:40 CDT 21:01 CDT
Mond 13:07 CDT 23:21 CDT
Länge des sichtbaren Lichts 14h 02m
Tageslänge
13h 06m
Tomorrow will be 2m 38s shorter.
Erstes Viertel, 43% of the Moon is Illuminated
Heute
Erstes Viertel
Sept 2
Erstes Viertel
Sept 8
Vollmond
Sept 15
Letztes Viertel
Sept 24
Neu

Heutige Rekorde

State Highs State Lows

Community

WunderPhotos

Upload Photos

1,749,350 Fotos hochgeladen!

Nearby

Luftqualität

  Luftqualität LQ Index Schadstoff
Gestern Mäßig
PM2.5
Gestern Gut
OZONE
Aktuell Mäßig
PM2.5
Aktuell Gut
OZONE
Montag Mäßig
PM2.5
Montag Gut
OZONE
Dienstag Gut
OZONE
Dienstag Gut
PM2.5

Schneehöhe

Station Depth Höhe
Kein Neuschnee gemeldet.

Erdbebenaktivität

Stadt Distance Mag. Time & Date
No recent earthquake activity has been reported nearby.
Minimum magnitude displayed is 2.5.

küstennahe Wassertemperaturen

Ort Temperatur
Kein Stationsbericht

Wetterstationen in der Umgebung